DAOV

Details ICAO DAOV (MUW)
Name GHRISS
Region Algeria
Timezone Africa/Algiers (UTC+1.0)
Plans Departing 0
Arriving 0
Stats Elevation 1,686 ft / 514 m (AMSL)
Location 35.207725° 0.147143°
Runways 1
Magnetic Variation 0.330° E
Sunrise 2017-12-18 07:03:49 UTC / 2017-12-18 08:03:49 Local
Sunset 2017-12-18 16:50:56 UTC / 2017-12-18 17:50:56 Local
Advertisement - Login to hide

Runways

ID Width Length Bearing (true) Bearing (mag) Surface Threshold Offset Overrun Length
08 98 ft / 30 m 5,564 ft / 1,696 m 79.88° 79.55° Asphalt 0 ft / 0 m 0 ft / 0 m
26 98 ft / 30 m 5,564 ft / 1,696 m 259.89° 259.56° Asphalt 0 ft / 0 m 0 ft / 0 m

Map

Weather


0- 5 10 15 20 25 30 35+ Temperature / ° C

Clouds and Precipitation
Forecast for 2017-12-18 06:00 UTC. Updated a few seconds ago

Ground ~20,000 ft ~40,000 ft Winds

METAR

DAOV 180100Z 00000KT CAVOK 03/02 Q1030

TAF

Not found

Frequencies

Tower 119.70 MHz TWR
Warning: Do not use this data for real-world aviation or navigation. No guarantee of current accuracy is given.